• Join FlightAware (Why Join?)
  • Login
  • US Flag 
01:51PM EDT


 

Airport Tracker/Info


-or-


 

Live Flight TrackerFlight Track Log ✈ DAL5173 ✈ 07-Jul-2013 ✈ KDTW - KRDU

Flight Track Log - Related Links

Times and Time Zones

All times are in EDT time to prevent confusion due to time zone crossing. See the DAL5173 flight status page for this flight to view local times or setup timezone preferences in your user account.

Time Position Orientation Groundspeed Altitude Reporting Facility
EDT Latitude Longitude Course Direction KTS MPH feet Rate Location/Type
07:39AM 42.2017 -83.3553 189° South 147 169 1,300  Level Cleveland Center
07:40AM 42.1681 -83.3622 189° South 206 237 2,300 1,740 Climbing Cleveland Center
07:41AM 42.0969 -83.3733 187° South 265 305 4,400 2,520 Climbing Cleveland Center
07:42AM 42.0550 -83.2958 126° Southeast 290 334 7,500 2,460 Climbing Cleveland Center
07:43AM 42.0581 -83.1700 88° East 301 346 10,000 1,800 Climbing Cleveland Center
07:44AM 42.0631 -83.0361 87° East 330 380 11,600 1,920 Climbing Cleveland Center
07:45AM 42.0700 -82.9019 86° East 350 403 13,900 2,040 Climbing Cleveland Center
07:46AM 42.0769 -82.7597 86° East 361 415 15,700 1,560 Climbing Cleveland Center
07:47AM 42.0817 -82.6172 87° East 374 430 17,100 1,500 Climbing Cleveland Center
07:48AM 42.0819 -82.4689 90° East 387 445 18,700 1,620 Climbing Cleveland Center
07:49AM 42.0636 -82.3172 99° East 392 451 20,400 1,500 Climbing Cleveland Center
07:50AM 42.0408 -82.1656 101° East 402 463 21,700 1,380 Climbing Cleveland Center
07:51AM 41.9758 -82.0244 122° Southeast 408 470 23,200 1,200 Climbing Cleveland Center
07:52AM 41.8978 -81.9472 144° Southeast 393 452 24,100 1,080 Climbing Cleveland Center
07:53AM 41.8050 -81.8561 144° Southeast 405 466 25,400 1,260 Climbing Cleveland Center
07:54AM 41.7100 -81.7681 145° Southeast 420 483 26,700 1,080 Climbing Cleveland Center
07:55AM 41.6106 -81.6967 152° Southeast 407 468 27,600 780 Climbing Cleveland Center
07:56AM 41.5069 -81.6311 155° Southeast 407 468 28,300 780 Climbing Cleveland Center
07:57AM 41.3931 -81.5575 154° Southeast 407 468 29,200 720 Climbing Cleveland Center
07:58AM 41.2850 -81.4950 157° South 412 474 29,800 540 Climbing Cleveland Center
07:59AM 41.1772 -81.4244 154° Southeast 425 489 30,300 480 Climbing Cleveland Center
08:00AM 41.0608 -81.3597 157° South 446 513 30,800 480 Climbing Cleveland Center
08:01AM 40.9614 -81.3008 156° South 441 507 31,300 600 Climbing Cleveland Center
08:02AM 40.8511 -81.2336 155° Southeast 436 502 32,000 720 Climbing Cleveland Center
08:03AM 40.7431 -81.1667 155° Southeast 436 502 32,800 780 Climbing Cleveland Center
08:04AM 40.6308 -81.1031 157° South 436 502 33,600 840 Climbing Cleveland Center
08:05AM 40.5167 -81.0311 154° Southeast 431 496 34,500 720 Climbing Cleveland Center
08:06AM 40.4083 -80.9647 155° Southeast 431 496 35,100 720 Climbing Cleveland Center
08:07AM 40.3022 -80.8989 155° Southeast 426 490 36,000 900 Climbing Cleveland Center
08:08AM 40.1942 -80.8386 157° South 426 490 36,900 480 Climbing Cleveland Center
08:09AM 40.0900 -80.7758 155° Southeast 421 484 37,000  Climbing Cleveland Center
08:10AM 39.9817 -80.7131 156° South 421 484 37,000  Level Cleveland Center
08:11AM 39.8692 -80.6481 156° South 427 491 37,000  Level Cleveland Center
08:12AM 39.7586 -80.5858 157° South 432 497 37,000  Level Cleveland Center
08:13AM 39.6503 -80.5211 155° Southeast 432 497 37,000  Level Cleveland Center
08:14AM 39.5397 -80.4567 156° South 437 503 37,000  Level Cleveland Center
08:16AM 39.3633 -80.3539 156° South 435 501 37,000  Level Washington Center
08:17AM 39.2489 -80.2903 157° South 435 501 37,000  Level Washington Center
08:18AM 39.1347 -80.2239 156° South 435 501 37,000 -420 Level Washington Center
08:19AM 39.0206 -80.1578 156° South 443 510 36,200 -960 Descending Washington Center
08:20AM 38.9161 -80.1061 159° South 449 517 35,200 -1,020 Descending Washington Center
08:21AM 38.7975 -80.0481 159° South 449 517 34,200 -960 Descending Washington Center
08:22AM 38.6767 -79.9875 159° South 456 525 33,300 -1,080 Descending Washington Center
08:23AM 38.5436 -79.9211 159° South 468 539 32,100 -1,140 Descending Washington Center
08:24AM 38.4206 -79.8611 159° South 468 539 31,100 -1,020 Descending Washington Center
08:25AM 38.3017 -79.8014 158° South 468 539 30,200 -1,080 Descending Washington Center
08:26AM 38.1789 -79.7389 158° South 461 531 29,000 -1,380 Descending Washington Center
08:27AM 38.0700 -79.6853 159° South 466 536 27,500 -1,500 Descending Washington Center
08:28AM 37.9469 -79.6261 159° South 466 536 26,000 -780 Descending Washington Center
08:29AM 37.8281 -79.5669 159° South 466 536 26,000 -240 Level Washington Center
08:30AM 37.6906 -79.4969 158° South 466 536 25,600 -660 Descending Washington Center
08:31AM 37.5817 -79.4467 160° South 466 536 24,700 -840 Descending Washington Center
08:32AM 37.4603 -79.3883 159° South 466 536 24,000 -420 Descending Washington Center
08:33AM 37.3372 -79.3272 158° South 466 536 23,900 -660 Descending Washington Center
08:34AM 37.2117 -79.2689 160° South 455 524 22,700 -1,140 Descending Washington Center
08:35AM 37.0944 -79.2114 159° South 450 518 21,700 -1,020 Descending Washington Center
08:36AM 36.9814 -79.1592 160° South 445 512 20,800 -780 Descending Washington Center
08:37AM 36.8681 -79.1072 160° South 439 505 20,200 -1,200 Descending Washington Center
08:38AM 36.7714 -79.0614 159° South 434 499 18,500 -1,920 Descending Washington Center
08:39AM 36.6622 -79.0125 160° South 427 491 16,400 -2,100 Descending Washington Center
08:40AM 36.5589 -78.9819 167° South 407 468 14,400 -2,040 Descending Washington Center
08:40AM 36.5031 -78.9642 166° South 392 451 13,200 -2,220 Descending Washington Center
08:42AM 36.3689 -78.9119 163° South 354 407 10,300 -1,800 Descending Washington Center
08:43AM 36.2969 -78.8700 155° Southeast 288 331 8,900 -1,560 Descending Washington Center
08:44AM 36.2247 -78.8361 159° South 266 306 7,100 -1,800 Descending Washington Center
08:45AM 36.1547 -78.8025 159° South 266 306 5,500 -1,800 Descending Washington Center
08:46AM 36.1022 -78.7361 134° Southeast 270 311 3,700 -1,260 Descending Washington Center
08:47AM 36.0583 -78.6650 127° Southeast 264 304 3,000 -780 Descending Washington Center
08:48AM 35.9981 -78.6550 172° South 239 275 2,200 -540 Descending Washington Center
08:49AM 35.9550 -78.7044 223° Southwest 213 245 2,000 -420 Descending Washington Center
08:50AM 35.9247 -78.7444 227° Southwest 145 167 1,400 -660 Descending Washington Center
08:51AM 35.8989 -78.7742 223° Southwest 120 138 800 -660 Descending Washington Center
08:53AM 35.8776 -78.7875 90° East  Level Estimated
09:00AM 35.8776 -78.7875 90° East  Level Estimated
09:01AM 35.8776 -78.7875 90° East  Level Estimated
09:02AM 35.8776 -78.7875 90° East  Level Estimated
09:03AM 35.8776 -78.7875 90° East  Level Estimated
09:04AM 35.8776 -78.7875 90° East  Level Estimated
09:05AM 35.8776 -78.7875 90° East  Level Estimated
09:06AM 35.8776 -78.7875 90° East  Level Estimated
09:07AM 35.8776 -78.7875 90° East  Level Estimated